sensor_id;sensor_type;location;lat;lon;timestamp;P1;durP1;ratioP1;P2;durP2;ratioP2
16870;SDS011;8552;48.120;-1.456;2023-07-13T00:00:17;4.25;;;1.75;;
16870;SDS011;8552;48.120;-1.456;2023-07-13T00:02:43;3.97;;;1.90;;
16870;SDS011;8552;48.120;-1.456;2023-07-13T00:05:09;4.75;;;1.67;;
16870;SDS011;8552;48.120;-1.456;2023-07-13T00:07:36;3.92;;;1.90;;
16870;SDS011;8552;48.120;-1.456;2023-07-13T00:10:03;4.40;;;2.00;;
16870;SDS011;8552;48.120;-1.456;2023-07-13T00:12:30;5.50;;;2.55;;
16870;SDS011;8552;48.120;-1.456;2023-07-13T00:14:57;4.80;;;2.50;;
16870;SDS011;8552;48.120;-1.456;2023-07-13T00:17:24;5.63;;;2.45;;
16870;SDS011;8552;48.120;-1.456;2023-07-13T00:19:50;5.57;;;2.25;;
16870;SDS011;8552;48.120;-1.456;2023-07-13T00:22:16;5.75;;;1.98;;
16870;SDS011;8552;48.120;-1.456;2023-07-13T00:24:43;4.95;;;2.13;;
16870;SDS011;8552;48.120;-1.456;2023-07-13T00:27:09;5.07;;;2.40;;
16870;SDS011;8552;48.120;-1.456;2023-07-13T00:29:36;5.90;;;2.58;;
16870;SDS011;8552;48.120;-1.456;2023-07-13T00:32:03;6.93;;;2.67;;
16870;SDS011;8552;48.120;-1.456;2023-07-13T00:34:29;6.55;;;2.80;;
16870;SDS011;8552;48.120;-1.456;2023-07-13T00:36:55;6.30;;;2.30;;
16870;SDS011;8552;48.120;-1.456;2023-07-13T00:39:21;4.00;;;1.95;;
16870;SDS011;8552;48.120;-1.456;2023-07-13T00:41:47;11.75;;;2.30;;
16870;SDS011;8552;48.120;-1.456;2023-07-13T00:44:14;4.03;;;2.67;;
16870;SDS011;8552;48.120;-1.456;2023-07-13T00:46:40;3.25;;;1.67;;
16870;SDS011;8552;48.120;-1.456;2023-07-13T00:49:07;2.75;;;1.80;;
16870;SDS011;8552;48.120;-1.456;2023-07-13T00:51:44;2.58;;;1.92;;
16870;SDS011;8552;48.120;-1.456;2023-07-13T00:54:12;4.82;;;2.00;;
16870;SDS011;8552;48.120;-1.456;2023-07-13T00:56:39;4.75;;;2.17;;
16870;SDS011;8552;48.120;-1.456;2023-07-13T00:59:05;3.47;;;1.80;;
16870;SDS011;8552;48.120;-1.456;2023-07-13T01:01:32;3.17;;;2.00;;
16870;SDS011;8552;48.120;-1.456;2023-07-13T01:03:58;4.80;;;2.05;;
16870;SDS011;8552;48.120;-1.456;2023-07-13T01:06:24;5.22;;;2.60;;
16870;SDS011;8552;48.120;-1.456;2023-07-13T01:08:50;4.68;;;1.90;;
16870;SDS011;8552;48.120;-1.456;2023-07-13T01:11:20;3.47;;;1.95;;
16870;SDS011;8552;48.120;-1.456;2023-07-13T01:13:49;5.13;;;2.30;;
16870;SDS011;8552;48.120;-1.456;2023-07-13T01:16:19;4.50;;;2.80;;
16870;SDS011;8552;48.120;-1.456;2023-07-13T01:18:46;6.47;;;3.08;;
16870;SDS011;8552;48.120;-1.456;2023-07-13T01:21:12;3.78;;;2.05;;
16870;SDS011;8552;48.120;-1.456;2023-07-13T01:23:38;4.47;;;1.90;;
16870;SDS011;8552;48.120;-1.456;2023-07-13T01:26:04;4.50;;;2.38;;
16870;SDS011;8552;48.120;-1.456;2023-07-13T01:28:30;3.92;;;1.80;;
16870;SDS011;8552;48.120;-1.456;2023-07-13T01:31:01;4.57;;;1.58;;
16870;SDS011;8552;48.120;-1.456;2023-07-13T01:33:27;5.55;;;2.47;;
16870;SDS011;8552;48.120;-1.456;2023-07-13T01:35:53;3.05;;;1.70;;
16870;SDS011;8552;48.120;-1.456;2023-07-13T01:38:22;4.38;;;2.10;;
16870;SDS011;8552;48.120;-1.456;2023-07-13T01:40:49;3.53;;;1.83;;
16870;SDS011;8552;48.120;-1.456;2023-07-13T01:43:15;5.88;;;1.90;;
16870;SDS011;8552;48.120;-1.456;2023-07-13T01:45:41;5.30;;;2.28;;
16870;SDS011;8552;48.120;-1.456;2023-07-13T01:48:09;6.43;;;2.40;;
16870;SDS011;8552;48.120;-1.456;2023-07-13T01:50:35;3.47;;;1.75;;
16870;SDS011;8552;48.120;-1.456;2023-07-13T01:53:01;3.05;;;1.80;;
16870;SDS011;8552;48.120;-1.456;2023-07-13T01:55:27;4.05;;;2.28;;
16870;SDS011;8552;48.120;-1.456;2023-07-13T01:57:54;2.22;;;1.65;;
16870;SDS011;8552;48.120;-1.456;2023-07-13T02:00:20;7.50;;;2.28;;
16870;SDS011;8552;48.120;-1.456;2023-07-13T02:02:46;3.85;;;1.70;;
16870;SDS011;8552;48.120;-1.456;2023-07-13T02:05:12;3.80;;;2.88;;
16870;SDS011;8552;48.120;-1.456;2023-07-13T02:07:38;4.25;;;2.42;;
16870;SDS011;8552;48.120;-1.456;2023-07-13T02:10:05;4.30;;;1.92;;
16870;SDS011;8552;48.120;-1.456;2023-07-13T02:12:31;4.90;;;2.30;;
16870;SDS011;8552;48.120;-1.456;2023-07-13T02:14:57;4.47;;;2.38;;
16870;SDS011;8552;48.120;-1.456;2023-07-13T02:17:24;2.25;;;2.05;;
16870;SDS011;8552;48.120;-1.456;2023-07-13T02:19:50;4.60;;;2.42;;
16870;SDS011;8552;48.120;-1.456;2023-07-13T02:22:16;3.85;;;2.20;;
16870;SDS011;8552;48.120;-1.456;2023-07-13T02:24:42;3.97;;;2.38;;
16870;SDS011;8552;48.120;-1.456;2023-07-13T02:27:08;3.47;;;2.05;;
16870;SDS011;8552;48.120;-1.456;2023-07-13T02:29:34;5.03;;;2.15;;
16870;SDS011;8552;48.120;-1.456;2023-07-13T02:32:00;3.95;;;2.50;;
16870;SDS011;8552;48.120;-1.456;2023-07-13T02:34:26;6.60;;;2.08;;
16870;SDS011;8552;48.120;-1.456;2023-07-13T02:36:52;5.38;;;2.00;;
16870;SDS011;8552;48.120;-1.456;2023-07-13T02:39:18;4.30;;;2.08;;
16870;SDS011;8552;48.120;-1.456;2023-07-13T02:41:44;5.63;;;2.47;;
16870;SDS011;8552;48.120;-1.456;2023-07-13T02:44:12;5.03;;;2.90;;
16870;SDS011;8552;48.120;-1.456;2023-07-13T02:46:38;6.68;;;2.55;;
16870;SDS011;8552;48.120;-1.456;2023-07-13T02:49:05;4.63;;;2.38;;
16870;SDS011;8552;48.120;-1.456;2023-07-13T02:51:31;2.53;;;2.33;;
16870;SDS011;8552;48.120;-1.456;2023-07-13T02:53:59;3.67;;;2.30;;
16870;SDS011;8552;48.120;-1.456;2023-07-13T02:56:26;5.00;;;2.70;;
16870;SDS011;8552;48.120;-1.456;2023-07-13T02:58:52;4.00;;;2.28;;
16870;SDS011;8552;48.120;-1.456;2023-07-13T03:01:19;4.43;;;2.30;;
16870;SDS011;8552;48.120;-1.456;2023-07-13T03:03:46;4.55;;;2.20;;
16870;SDS011;8552;48.120;-1.456;2023-07-13T03:06:12;5.00;;;2.58;;
16870;SDS011;8552;48.120;-1.456;2023-07-13T03:08:39;4.07;;;2.20;;
16870;SDS011;8552;48.120;-1.456;2023-07-13T03:11:08;6.22;;;2.53;;
16870;SDS011;8552;48.120;-1.456;2023-07-13T03:13:36;4.70;;;2.22;;
16870;SDS011;8552;48.120;-1.456;2023-07-13T03:16:02;4.00;;;2.45;;
16870;SDS011;8552;48.120;-1.456;2023-07-13T03:18:28;5.75;;;2.50;;
16870;SDS011;8552;48.120;-1.456;2023-07-13T03:20:54;3.97;;;2.10;;
16870;SDS011;8552;48.120;-1.456;2023-07-13T03:23:21;6.18;;;2.50;;
16870;SDS011;8552;48.120;-1.456;2023-07-13T03:25:47;3.70;;;2.38;;
16870;SDS011;8552;48.120;-1.456;2023-07-13T03:28:14;5.93;;;2.40;;
16870;SDS011;8552;48.120;-1.456;2023-07-13T03:30:40;4.43;;;2.63;;
16870;SDS011;8552;48.120;-1.456;2023-07-13T03:33:07;5.10;;;1.90;;
16870;SDS011;8552;48.120;-1.456;2023-07-13T03:35:33;2.67;;;2.47;;
16870;SDS011;8552;48.120;-1.456;2023-07-13T03:37:59;6.07;;;2.60;;
16870;SDS011;8552;48.120;-1.456;2023-07-13T03:40:27;4.50;;;2.97;;
16870;SDS011;8552;48.120;-1.456;2023-07-13T03:42:53;5.15;;;2.72;;
16870;SDS011;8552;48.120;-1.456;2023-07-13T03:45:19;5.75;;;2.33;;
16870;SDS011;8552;48.120;-1.456;2023-07-13T03:47:45;3.08;;;2.30;;
16870;SDS011;8552;48.120;-1.456;2023-07-13T03:50:11;3.83;;;2.33;;
16870;SDS011;8552;48.120;-1.456;2023-07-13T03:52:37;6.10;;;3.17;;
16870;SDS011;8552;48.120;-1.456;2023-07-13T03:55:03;3.97;;;2.65;;
16870;SDS011;8552;48.120;-1.456;2023-07-13T03:57:31;6.43;;;2.70;;
16870;SDS011;8552;48.120;-1.456;2023-07-13T03:59:57;4.40;;;2.88;;
16870;SDS011;8552;48.120;-1.456;2023-07-13T04:02:23;6.50;;;2.72;;
16870;SDS011;8552;48.120;-1.456;2023-07-13T04:04:49;5.90;;;2.58;;
16870;SDS011;8552;48.120;-1.456;2023-07-13T04:07:15;3.75;;;2.53;;
16870;SDS011;8552;48.120;-1.456;2023-07-13T04:09:41;5.95;;;4.50;;
16870;SDS011;8552;48.120;-1.456;2023-07-13T04:12:07;6.90;;;3.08;;
16870;SDS011;8552;48.120;-1.456;2023-07-13T04:14:33;6.05;;;3.03;;
16870;SDS011;8552;48.120;-1.456;2023-07-13T04:16:59;8.02;;;3.38;;
16870;SDS011;8552;48.120;-1.456;2023-07-13T04:19:25;7.10;;;2.85;;
16870;SDS011;8552;48.120;-1.456;2023-07-13T04:21:51;6.35;;;2.63;;
16870;SDS011;8552;48.120;-1.456;2023-07-13T04:24:17;3.90;;;2.45;;
16870;SDS011;8552;48.120;-1.456;2023-07-13T04:26:44;7.60;;;2.80;;
16870;SDS011;8552;48.120;-1.456;2023-07-13T04:29:10;8.25;;;2.75;;
16870;SDS011;8552;48.120;-1.456;2023-07-13T04:31:36;5.82;;;2.58;;
16870;SDS011;8552;48.120;-1.456;2023-07-13T04:34:02;4.13;;;2.50;;
16870;SDS011;8552;48.120;-1.456;2023-07-13T04:36:28;6.38;;;3.20;;
16870;SDS011;8552;48.120;-1.456;2023-07-13T04:38:54;6.90;;;2.72;;
16870;SDS011;8552;48.120;-1.456;2023-07-13T04:41:20;10.25;;;3.17;;
16870;SDS011;8552;48.120;-1.456;2023-07-13T04:43:47;8.60;;;3.70;;
16870;SDS011;8552;48.120;-1.456;2023-07-13T04:46:15;6.50;;;3.00;;
16870;SDS011;8552;48.120;-1.456;2023-07-13T04:48:42;5.35;;;2.50;;
16870;SDS011;8552;48.120;-1.456;2023-07-13T04:51:09;6.82;;;2.78;;
16870;SDS011;8552;48.120;-1.456;2023-07-13T04:53:35;7.18;;;3.28;;
16870;SDS011;8552;48.120;-1.456;2023-07-13T04:56:01;7.60;;;2.50;;
16870;SDS011;8552;48.120;-1.456;2023-07-13T04:58:28;6.47;;;2.60;;
16870;SDS011;8552;48.120;-1.456;2023-07-13T05:00:58;7.10;;;2.85;;
16870;SDS011;8552;48.120;-1.456;2023-07-13T05:03:25;6.30;;;2.65;;
16870;SDS011;8552;48.120;-1.456;2023-07-13T05:05:58;5.35;;;2.55;;
16870;SDS011;8552;48.120;-1.456;2023-07-13T05:08:24;3.80;;;2.53;;
16870;SDS011;8552;48.120;-1.456;2023-07-13T05:10:50;5.72;;;2.65;;
16870;SDS011;8552;48.120;-1.456;2023-07-13T05:13:16;4.82;;;3.10;;
16870;SDS011;8552;48.120;-1.456;2023-07-13T05:15:43;5.78;;;2.75;;
16870;SDS011;8552;48.120;-1.456;2023-07-13T05:18:09;6.80;;;2.97;;
16870;SDS011;8552;48.120;-1.456;2023-07-13T05:20:35;6.88;;;3.67;;
16870;SDS011;8552;48.120;-1.456;2023-07-13T05:23:01;7.97;;;3.03;;
16870;SDS011;8552;48.120;-1.456;2023-07-13T05:25:27;7.85;;;3.00;;
16870;SDS011;8552;48.120;-1.456;2023-07-13T05:27:53;8.55;;;3.15;;
16870;SDS011;8552;48.120;-1.456;2023-07-13T05:30:19;9.15;;;2.88;;
16870;SDS011;8552;48.120;-1.456;2023-07-13T05:32:45;8.48;;;2.83;;
16870;SDS011;8552;48.120;-1.456;2023-07-13T05:35:11;5.18;;;3.10;;
16870;SDS011;8552;48.120;-1.456;2023-07-13T05:37:37;4.85;;;2.58;;
16870;SDS011;8552;48.120;-1.456;2023-07-13T05:40:03;7.78;;;2.55;;
16870;SDS011;8552;48.120;-1.456;2023-07-13T05:42:29;4.60;;;2.88;;
16870;SDS011;8552;48.120;-1.456;2023-07-13T05:44:56;3.83;;;3.03;;
16870;SDS011;8552;48.120;-1.456;2023-07-13T05:47:22;5.85;;;2.67;;
16870;SDS011;8552;48.120;-1.456;2023-07-13T05:49:48;10.50;;;3.45;;
16870;SDS011;8552;48.120;-1.456;2023-07-13T05:52:14;5.00;;;2.85;;
16870;SDS011;8552;48.120;-1.456;2023-07-13T05:54:40;8.60;;;2.85;;
16870;SDS011;8552;48.120;-1.456;2023-07-13T05:57:06;7.65;;;3.03;;
16870;SDS011;8552;48.120;-1.456;2023-07-13T05:59:32;11.25;;;2.95;;
16870;SDS011;8552;48.120;-1.456;2023-07-13T06:01:58;10.60;;;3.22;;
16870;SDS011;8552;48.120;-1.456;2023-07-13T06:04:24;6.28;;;3.03;;
16870;SDS011;8552;48.120;-1.456;2023-07-13T06:06:50;12.07;;;3.45;;
16870;SDS011;8552;48.120;-1.456;2023-07-13T06:09:16;5.32;;;3.10;;
16870;SDS011;8552;48.120;-1.456;2023-07-13T06:11:42;3.42;;;2.90;;
16870;SDS011;8552;48.120;-1.456;2023-07-13T06:14:08;6.75;;;2.95;;
16870;SDS011;8552;48.120;-1.456;2023-07-13T06:16:34;4.40;;;2.83;;
16870;SDS011;8552;48.120;-1.456;2023-07-13T06:19:00;8.80;;;2.75;;
16870;SDS011;8552;48.120;-1.456;2023-07-13T06:21:26;6.03;;;2.80;;
16870;SDS011;8552;48.120;-1.456;2023-07-13T06:23:53;3.97;;;3.10;;
16870;SDS011;8552;48.120;-1.456;2023-07-13T06:26:19;8.68;;;3.15;;
16870;SDS011;8552;48.120;-1.456;2023-07-13T06:28:46;7.43;;;2.92;;
16870;SDS011;8552;48.120;-1.456;2023-07-13T06:31:13;10.18;;;3.25;;
16870;SDS011;8552;48.120;-1.456;2023-07-13T06:33:39;9.18;;;3.58;;
16870;SDS011;8552;48.120;-1.456;2023-07-13T06:36:05;9.48;;;3.40;;
16870;SDS011;8552;48.120;-1.456;2023-07-13T06:38:33;7.32;;;3.55;;
16870;SDS011;8552;48.120;-1.456;2023-07-13T06:40:59;5.60;;;2.80;;
16870;SDS011;8552;48.120;-1.456;2023-07-13T06:43:25;6.45;;;2.55;;
16870;SDS011;8552;48.120;-1.456;2023-07-13T06:45:55;9.10;;;4.03;;
16870;SDS011;8552;48.120;-1.456;2023-07-13T06:48:26;3.97;;;3.00;;
16870;SDS011;8552;48.120;-1.456;2023-07-13T06:50:54;4.53;;;2.47;;
16870;SDS011;8552;48.120;-1.456;2023-07-13T06:53:22;6.22;;;3.17;;
16870;SDS011;8552;48.120;-1.456;2023-07-13T06:55:51;9.13;;;3.10;;
16870;SDS011;8552;48.120;-1.456;2023-07-13T06:58:22;7.82;;;2.60;;
16870;SDS011;8552;48.120;-1.456;2023-07-13T07:00:53;5.63;;;2.83;;
16870;SDS011;8552;48.120;-1.456;2023-07-13T07:03:21;7.80;;;3.08;;
16870;SDS011;8552;48.120;-1.456;2023-07-13T07:05:50;6.13;;;2.50;;
16870;SDS011;8552;48.120;-1.456;2023-07-13T07:08:19;9.38;;;2.92;;
16870;SDS011;8552;48.120;-1.456;2023-07-13T07:10:46;12.32;;;3.10;;
16870;SDS011;8552;48.120;-1.456;2023-07-13T07:13:19;6.10;;;2.50;;
16870;SDS011;8552;48.120;-1.456;2023-07-13T07:15:47;7.40;;;2.72;;
16870;SDS011;8552;48.120;-1.456;2023-07-13T07:18:18;7.65;;;3.17;;
16870;SDS011;8552;48.120;-1.456;2023-07-13T07:20:46;6.88;;;3.00;;
16870;SDS011;8552;48.120;-1.456;2023-07-13T07:23:17;7.05;;;3.30;;
16870;SDS011;8552;48.120;-1.456;2023-07-13T07:25:45;6.63;;;2.42;;
16870;SDS011;8552;48.120;-1.456;2023-07-13T07:28:15;8.40;;;2.70;;
16870;SDS011;8552;48.120;-1.456;2023-07-13T07:30:46;5.60;;;2.85;;
16870;SDS011;8552;48.120;-1.456;2023-07-13T07:33:14;4.68;;;2.38;;
16870;SDS011;8552;48.120;-1.456;2023-07-13T07:35:42;7.20;;;2.95;;
16870;SDS011;8552;48.120;-1.456;2023-07-13T07:38:13;7.65;;;2.72;;
16870;SDS011;8552;48.120;-1.456;2023-07-13T07:40:41;7.82;;;2.70;;
16870;SDS011;8552;48.120;-1.456;2023-07-13T07:43:12;10.57;;;2.30;;
16870;SDS011;8552;48.120;-1.456;2023-07-13T07:45:41;7.25;;;3.17;;
16870;SDS011;8552;48.120;-1.456;2023-07-13T07:48:09;9.35;;;3.13;;
16870;SDS011;8552;48.120;-1.456;2023-07-13T07:50:36;6.78;;;2.60;;
16870;SDS011;8552;48.120;-1.456;2023-07-13T07:53:04;7.40;;;2.53;;
16870;SDS011;8552;48.120;-1.456;2023-07-13T07:55:37;5.28;;;2.20;;
16870;SDS011;8552;48.120;-1.456;2023-07-13T07:58:05;5.93;;;2.78;;
16870;SDS011;8552;48.120;-1.456;2023-07-13T08:00:33;5.13;;;2.00;;
16870;SDS011;8552;48.120;-1.456;2023-07-13T08:03:01;6.70;;;2.53;;
16870;SDS011;8552;48.120;-1.456;2023-07-13T08:05:29;6.90;;;2.25;;
16870;SDS011;8552;48.120;-1.456;2023-07-13T08:10:39;7.93;;;2.60;;
16870;SDS011;8552;48.120;-1.456;2023-07-13T08:13:09;8.18;;;2.80;;
16870;SDS011;8552;48.120;-1.456;2023-07-13T08:15:37;5.75;;;2.58;;
16870;SDS011;8552;48.120;-1.456;2023-07-13T08:18:04;4.05;;;2.20;;
16870;SDS011;8552;48.120;-1.456;2023-07-13T08:20:36;5.30;;;2.30;;
16870;SDS011;8552;48.120;-1.456;2023-07-13T08:23:04;4.63;;;1.95;;
16870;SDS011;8552;48.120;-1.456;2023-07-13T08:25:32;4.95;;;2.20;;
16870;SDS011;8552;48.120;-1.456;2023-07-13T08:28:02;6.88;;;2.40;;
16870;SDS011;8552;48.120;-1.456;2023-07-13T08:30:30;5.63;;;2.35;;
16870;SDS011;8552;48.120;-1.456;2023-07-13T08:32:59;10.38;;;2.47;;
16870;SDS011;8552;48.120;-1.456;2023-07-13T08:35:28;5.57;;;2.65;;
16870;SDS011;8552;48.120;-1.456;2023-07-13T08:38:00;6.43;;;2.20;;
16870;SDS011;8552;48.120;-1.456;2023-07-13T08:40:35;6.63;;;2.63;;
16870;SDS011;8552;48.120;-1.456;2023-07-13T08:43:03;5.32;;;2.05;;
16870;SDS011;8552;48.120;-1.456;2023-07-13T08:45:51;4.90;;;2.40;;
16870;SDS011;8552;48.120;-1.456;2023-07-13T08:48:33;3.55;;;1.75;;
16870;SDS011;8552;48.120;-1.456;2023-07-13T08:53:45;7.07;;;1.85;;
16870;SDS011;8552;48.120;-1.456;2023-07-13T08:56:32;4.32;;;2.05;;
16870;SDS011;8552;48.120;-1.456;2023-07-13T08:59:02;2.80;;;1.85;;
16870;SDS011;8552;48.120;-1.456;2023-07-13T09:01:42;2.25;;;1.33;;
16870;SDS011;8552;48.120;-1.456;2023-07-13T09:04:21;3.35;;;1.95;;
16870;SDS011;8552;48.120;-1.456;2023-07-13T09:12:13;6.50;;;1.95;;
16870;SDS011;8552;48.120;-1.456;2023-07-13T09:14:48;3.47;;;2.03;;
16870;SDS011;8552;48.120;-1.456;2023-07-13T09:17:22;3.88;;;1.50;;
16870;SDS011;8552;48.120;-1.456;2023-07-13T09:19:52;3.22;;;2.08;;
16870;SDS011;8552;48.120;-1.456;2023-07-13T09:22:20;7.07;;;1.98;;
16870;SDS011;8552;48.120;-1.456;2023-07-13T09:24:54;4.03;;;1.60;;
16870;SDS011;8552;48.120;-1.456;2023-07-13T09:27:27;3.08;;;1.63;;
16870;SDS011;8552;48.120;-1.456;2023-07-13T09:30:41;3.67;;;1.50;;
16870;SDS011;8552;48.120;-1.456;2023-07-13T09:32:51;2.88;;;1.75;;
16870;SDS011;8552;48.120;-1.456;2023-07-13T09:35:21;6.13;;;1.60;;
16870;SDS011;8552;48.120;-1.456;2023-07-13T09:37:48;2.58;;;1.55;;
16870;SDS011;8552;48.120;-1.456;2023-07-13T09:40:24;3.47;;;1.58;;
16870;SDS011;8552;48.120;-1.456;2023-07-13T09:42:53;1.67;;;1.20;;
16870;SDS011;8552;48.120;-1.456;2023-07-13T09:45:28;2.90;;;1.33;;
16870;SDS011;8552;48.120;-1.456;2023-07-13T09:48:14;2.80;;;1.17;;
16870;SDS011;8552;48.120;-1.456;2023-07-13T09:50:43;1.42;;;1.20;;
16870;SDS011;8552;48.120;-1.456;2023-07-13T09:53:15;1.45;;;1.05;;
16870;SDS011;8552;48.120;-1.456;2023-07-13T09:55:45;0.98;;;0.73;;
16870;SDS011;8552;48.120;-1.456;2023-07-13T09:58:13;1.58;;;1.10;;
16870;SDS011;8552;48.120;-1.456;2023-07-13T10:00:41;2.33;;;1.10;;
16870;SDS011;8552;48.120;-1.456;2023-07-13T10:05:38;2.47;;;0.90;;
16870;SDS011;8552;48.120;-1.456;2023-07-13T10:08:05;2.15;;;0.85;;
16870;SDS011;8552;48.120;-1.456;2023-07-13T10:10:32;1.52;;;0.88;;
16870;SDS011;8552;48.120;-1.456;2023-07-13T10:13:01;3.58;;;1.92;;
16870;SDS011;8552;48.120;-1.456;2023-07-13T10:15:29;1.00;;;0.90;;
16870;SDS011;8552;48.120;-1.456;2023-07-13T10:17:55;3.20;;;1.05;;
16870;SDS011;8552;48.120;-1.456;2023-07-13T10:20:23;2.45;;;1.10;;
16870;SDS011;8552;48.120;-1.456;2023-07-13T10:23:00;1.23;;;1.08;;
16870;SDS011;8552;48.120;-1.456;2023-07-13T10:25:29;0.70;;;0.70;;
16870;SDS011;8552;48.120;-1.456;2023-07-13T10:28:00;1.92;;;0.70;;
16870;SDS011;8552;48.120;-1.456;2023-07-13T10:30:32;0.60;;;0.60;;
16870;SDS011;8552;48.120;-1.456;2023-07-13T10:33:00;2.70;;;0.80;;
16870;SDS011;8552;48.120;-1.456;2023-07-13T10:35:27;1.67;;;0.88;;
16870;SDS011;8552;48.120;-1.456;2023-07-13T10:40:36;1.70;;;0.90;;
16870;SDS011;8552;48.120;-1.456;2023-07-13T10:43:04;2.65;;;0.90;;
16870;SDS011;8552;48.120;-1.456;2023-07-13T10:45:36;6.88;;;1.27;;
16870;SDS011;8552;48.120;-1.456;2023-07-13T10:48:02;1.95;;;0.85;;
16870;SDS011;8552;48.120;-1.456;2023-07-13T10:50:29;3.72;;;0.95;;
16870;SDS011;8552;48.120;-1.456;2023-07-13T10:53:17;2.80;;;0.80;;
16870;SDS011;8552;48.120;-1.456;2023-07-13T11:03:15;1.23;;;0.80;;
16870;SDS011;8552;48.120;-1.456;2023-07-13T11:05:42;2.10;;;1.10;;
16870;SDS011;8552;48.120;-1.456;2023-07-13T11:10:54;1.08;;;0.82;;
16870;SDS011;8552;48.120;-1.456;2023-07-13T11:13:38;3.28;;;1.00;;
16870;SDS011;8552;48.120;-1.456;2023-07-13T11:18:50;2.42;;;1.10;;
16870;SDS011;8552;48.120;-1.456;2023-07-13T11:21:20;2.33;;;0.90;;
16870;SDS011;8552;48.120;-1.456;2023-07-13T11:29:12;3.80;;;0.85;;
16870;SDS011;8552;48.120;-1.456;2023-07-13T11:31:51;2.40;;;0.90;;
16870;SDS011;8552;48.120;-1.456;2023-07-13T11:34:18;1.58;;;1.00;;
16870;SDS011;8552;48.120;-1.456;2023-07-13T11:36:47;5.22;;;1.20;;
16870;SDS011;8552;48.120;-1.456;2023-07-13T11:42:01;1.35;;;1.02;;
16870;SDS011;8552;48.120;-1.456;2023-07-13T11:44:28;2.35;;;0.90;;
16870;SDS011;8552;48.120;-1.456;2023-07-13T11:46:56;1.95;;;1.20;;
16870;SDS011;8552;48.120;-1.456;2023-07-13T11:49:23;1.58;;;1.10;;
16870;SDS011;8552;48.120;-1.456;2023-07-13T11:51:49;1.10;;;0.80;;
16870;SDS011;8552;48.120;-1.456;2023-07-13T11:54:31;2.65;;;1.00;;
16870;SDS011;8552;48.120;-1.456;2023-07-13T11:56:59;2.05;;;1.13;;
16870;SDS011;8552;48.120;-1.456;2023-07-13T11:59:26;2.13;;;1.10;;
16870;SDS011;8552;48.120;-1.456;2023-07-13T12:01:53;1.40;;;0.90;;
16870;SDS011;8552;48.120;-1.456;2023-07-13T12:04:24;1.90;;;1.00;;
16870;SDS011;8552;48.120;-1.456;2023-07-13T12:06:55;2.53;;;1.10;;
16870;SDS011;8552;48.120;-1.456;2023-07-13T12:09:21;1.83;;;1.05;;
16870;SDS011;8552;48.120;-1.456;2023-07-13T12:11:50;1.70;;;0.95;;
16870;SDS011;8552;48.120;-1.456;2023-07-13T12:14:17;2.58;;;0.90;;
16870;SDS011;8552;48.120;-1.456;2023-07-13T12:16:44;2.45;;;1.42;;
16870;SDS011;8552;48.120;-1.456;2023-07-13T12:19:26;2.28;;;1.20;;
16870;SDS011;8552;48.120;-1.456;2023-07-13T12:21:56;3.45;;;0.90;;
16870;SDS011;8552;48.120;-1.456;2023-07-13T12:24:23;2.13;;;1.33;;
16870;SDS011;8552;48.120;-1.456;2023-07-13T12:26:54;1.38;;;0.98;;
16870;SDS011;8552;48.120;-1.456;2023-07-13T12:29:20;2.97;;;1.20;;
16870;SDS011;8552;48.120;-1.456;2023-07-13T12:31:48;1.98;;;1.15;;
16870;SDS011;8552;48.120;-1.456;2023-07-13T12:34:18;1.27;;;0.70;;
16870;SDS011;8552;48.120;-1.456;2023-07-13T12:36:55;3.00;;;1.00;;
16870;SDS011;8552;48.120;-1.456;2023-07-13T12:41:51;3.08;;;1.20;;
16870;SDS011;8552;48.120;-1.456;2023-07-13T12:44:26;0.73;;;0.57;;
16870;SDS011;8552;48.120;-1.456;2023-07-13T12:46:56;2.33;;;1.25;;
16870;SDS011;8552;48.120;-1.456;2023-07-13T12:49:25;2.70;;;1.00;;
16870;SDS011;8552;48.120;-1.456;2023-07-13T12:51:55;3.22;;;1.10;;
16870;SDS011;8552;48.120;-1.456;2023-07-13T12:54:23;3.10;;;1.00;;
16870;SDS011;8552;48.120;-1.456;2023-07-13T12:56:51;1.25;;;0.90;;
16870;SDS011;8552;48.120;-1.456;2023-07-13T12:59:19;2.95;;;0.95;;
16870;SDS011;8552;48.120;-1.456;2023-07-13T13:01:45;1.67;;;1.15;;
16870;SDS011;8552;48.120;-1.456;2023-07-13T13:04:12;2.05;;;1.10;;
16870;SDS011;8552;48.120;-1.456;2023-07-13T13:06:38;2.42;;;1.17;;
16870;SDS011;8552;48.120;-1.456;2023-07-13T13:09:09;3.15;;;1.08;;
16870;SDS011;8552;48.120;-1.456;2023-07-13T13:11:37;5.22;;;1.30;;
16870;SDS011;8552;48.120;-1.456;2023-07-13T13:14:04;1.08;;;0.98;;
16870;SDS011;8552;48.120;-1.456;2023-07-13T13:16:33;0.88;;;0.77;;
16870;SDS011;8552;48.120;-1.456;2023-07-13T13:19:01;1.90;;;0.77;;
16870;SDS011;8552;48.120;-1.456;2023-07-13T13:21:31;1.98;;;0.70;;
16870;SDS011;8552;48.120;-1.456;2023-07-13T13:23:57;3.65;;;1.30;;
16870;SDS011;8552;48.120;-1.456;2023-07-13T13:26:24;3.10;;;1.55;;
16870;SDS011;8552;48.120;-1.456;2023-07-13T13:28:51;1.63;;;1.08;;
16870;SDS011;8552;48.120;-1.456;2023-07-13T13:31:17;2.92;;;0.85;;
16870;SDS011;8552;48.120;-1.456;2023-07-13T13:33:44;2.88;;;0.95;;
16870;SDS011;8552;48.120;-1.456;2023-07-13T13:36:18;2.25;;;1.08;;
16870;SDS011;8552;48.120;-1.456;2023-07-13T13:38:45;0.82;;;0.80;;
16870;SDS011;8552;48.120;-1.456;2023-07-13T13:41:12;1.45;;;1.13;;
16870;SDS011;8552;48.120;-1.456;2023-07-13T13:43:39;1.98;;;1.08;;
16870;SDS011;8552;48.120;-1.456;2023-07-13T13:46:24;3.55;;;1.30;;
16870;SDS011;8552;48.120;-1.456;2023-07-13T13:48:51;3.35;;;1.02;;
16870;SDS011;8552;48.120;-1.456;2023-07-13T13:51:19;4.65;;;1.40;;
16870;SDS011;8552;48.120;-1.456;2023-07-13T13:53:46;1.45;;;0.90;;
16870;SDS011;8552;48.120;-1.456;2023-07-13T13:56:12;2.63;;;1.10;;
16870;SDS011;8552;48.120;-1.456;2023-07-13T13:58:39;2.13;;;1.13;;
16870;SDS011;8552;48.120;-1.456;2023-07-13T14:01:09;1.50;;;0.98;;
16870;SDS011;8552;48.120;-1.456;2023-07-13T14:03:37;1.02;;;1.00;;
16870;SDS011;8552;48.120;-1.456;2023-07-13T14:06:03;3.40;;;1.20;;
16870;SDS011;8552;48.120;-1.456;2023-07-13T14:08:30;1.38;;;1.20;;
16870;SDS011;8552;48.120;-1.456;2023-07-13T14:10:56;1.73;;;1.05;;
16870;SDS011;8552;48.120;-1.456;2023-07-13T14:13:33;1.38;;;1.25;;
16870;SDS011;8552;48.120;-1.456;2023-07-13T14:16:01;2.38;;;0.93;;
16870;SDS011;8552;48.120;-1.456;2023-07-13T14:18:27;2.47;;;0.98;;
16870;SDS011;8552;48.120;-1.456;2023-07-13T14:20:54;3.85;;;1.05;;
16870;SDS011;8552;48.120;-1.456;2023-07-13T14:23:20;4.30;;;1.00;;
16870;SDS011;8552;48.120;-1.456;2023-07-13T14:25:47;2.03;;;1.10;;
16870;SDS011;8552;48.120;-1.456;2023-07-13T14:30:46;2.30;;;1.17;;
16870;SDS011;8552;48.120;-1.456;2023-07-13T14:33:15;1.67;;;0.82;;
16870;SDS011;8552;48.120;-1.456;2023-07-13T14:35:46;2.70;;;0.98;;
16870;SDS011;8552;48.120;-1.456;2023-07-13T14:38:18;1.08;;;0.90;;
16870;SDS011;8552;48.120;-1.456;2023-07-13T14:40:45;2.90;;;1.05;;
16870;SDS011;8552;48.120;-1.456;2023-07-13T14:43:12;1.52;;;1.05;;
16870;SDS011;8552;48.120;-1.456;2023-07-13T14:45:43;2.85;;;1.27;;
16870;SDS011;8552;48.120;-1.456;2023-07-13T14:48:23;2.15;;;1.13;;
16870;SDS011;8552;48.120;-1.456;2023-07-13T14:50:56;3.42;;;1.27;;
16870;SDS011;8552;48.120;-1.456;2023-07-13T14:53:26;2.53;;;0.90;;
16870;SDS011;8552;48.120;-1.456;2023-07-13T14:55:54;1.85;;;0.90;;
16870;SDS011;8552;48.120;-1.456;2023-07-13T14:58:23;2.35;;;1.20;;
16870;SDS011;8552;48.120;-1.456;2023-07-13T15:00:51;1.50;;;1.10;;
16870;SDS011;8552;48.120;-1.456;2023-07-13T15:03:24;2.22;;;1.00;;
16870;SDS011;8552;48.120;-1.456;2023-07-13T15:05:52;1.80;;;0.55;;
16870;SDS011;8552;48.120;-1.456;2023-07-13T15:08:19;1.60;;;0.80;;
16870;SDS011;8552;48.120;-1.456;2023-07-13T15:10:48;1.00;;;0.90;;
16870;SDS011;8552;48.120;-1.456;2023-07-13T15:13:26;2.92;;;1.17;;
16870;SDS011;8552;48.120;-1.456;2023-07-13T15:15:55;1.15;;;0.80;;
16870;SDS011;8552;48.120;-1.456;2023-07-13T15:18:24;2.28;;;1.33;;
16870;SDS011;8552;48.120;-1.456;2023-07-13T15:20:54;1.67;;;0.93;;
16870;SDS011;8552;48.120;-1.456;2023-07-13T15:23:26;2.35;;;1.02;;
16870;SDS011;8552;48.120;-1.456;2023-07-13T15:25:54;1.10;;;1.00;;
16870;SDS011;8552;48.120;-1.456;2023-07-13T15:28:20;2.35;;;1.25;;
16870;SDS011;8552;48.120;-1.456;2023-07-13T15:30:47;2.78;;;1.13;;
16870;SDS011;8552;48.120;-1.456;2023-07-13T15:33:18;1.17;;;0.90;;
16870;SDS011;8552;48.120;-1.456;2023-07-13T15:35:45;5.78;;;1.00;;